sensor_id;sensor_type;location;lat;lon;timestamp;temperature;humidity
3923;DHT22;1976;51.694;6.256;2022-08-04T00:01:06;25.00;99.60
3923;DHT22;1976;51.694;6.256;2022-08-04T00:03:41;25.00;99.50
3923;DHT22;1976;51.694;6.256;2022-08-04T00:08:45;24.90;99.80
3923;DHT22;1976;51.694;6.256;2022-08-04T00:11:21;24.90;99.60
3923;DHT22;1976;51.694;6.256;2022-08-04T00:13:58;24.90;99.40
3923;DHT22;1976;51.694;6.256;2022-08-04T00:16:28;24.90;99.40
3923;DHT22;1976;51.694;6.256;2022-08-04T00:19:32;24.90;99.40
3923;DHT22;1976;51.694;6.256;2022-08-04T00:22:01;24.80;99.60
3923;DHT22;1976;51.694;6.256;2022-08-04T00:24:30;24.80;99.60
3923;DHT22;1976;51.694;6.256;2022-08-04T00:26:56;24.90;99.30
3923;DHT22;1976;51.694;6.256;2022-08-04T00:29:22;24.90;99.50
3923;DHT22;1976;51.694;6.256;2022-08-04T00:31:49;24.90;99.40
3923;DHT22;1976;51.694;6.256;2022-08-04T00:34:15;24.90;99.40
3923;DHT22;1976;51.694;6.256;2022-08-04T00:36:44;24.90;99.30
3923;DHT22;1976;51.694;6.256;2022-08-04T00:39:13;24.90;99.20
3923;DHT22;1976;51.694;6.256;2022-08-04T00:47:38;24.80;99.10
3923;DHT22;1976;51.694;6.256;2022-08-04T00:50:11;24.80;99.30
3923;DHT22;1976;51.694;6.256;2022-08-04T01:00:25;24.80;99.40
3923;DHT22;1976;51.694;6.256;2022-08-04T01:11:37;24.70;99.10
3923;DHT22;1976;51.694;6.256;2022-08-04T01:16:52;24.70;99.40
3923;DHT22;1976;51.694;6.256;2022-08-04T01:20:00;24.70;99.40
3923;DHT22;1976;51.694;6.256;2022-08-04T01:23:27;24.70;99.20
3923;DHT22;1976;51.694;6.256;2022-08-04T01:28:32;24.70;99.50
3923;DHT22;1976;51.694;6.256;2022-08-04T01:31:18;24.60;99.40
3923;DHT22;1976;51.694;6.256;2022-08-04T01:33:48;24.60;99.50
3923;DHT22;1976;51.694;6.256;2022-08-04T01:36:15;24.60;99.40
3923;DHT22;1976;51.694;6.256;2022-08-04T01:38:42;24.60;99.30
3923;DHT22;1976;51.694;6.256;2022-08-04T01:41:13;24.60;99.10
3923;DHT22;1976;51.694;6.256;2022-08-04T01:43:43;24.70;99.10
3923;DHT22;1976;51.694;6.256;2022-08-04T01:46:14;24.80;98.60
3923;DHT22;1976;51.694;6.256;2022-08-04T01:48:43;24.80;98.80
3923;DHT22;1976;51.694;6.256;2022-08-04T01:51:09;24.80;98.50
3923;DHT22;1976;51.694;6.256;2022-08-04T01:53:38;24.80;98.30
3923;DHT22;1976;51.694;6.256;2022-08-04T01:56:06;24.80;98.20
3923;DHT22;1976;51.694;6.256;2022-08-04T01:58:33;24.80;98.80
3923;DHT22;1976;51.694;6.256;2022-08-04T02:01:01;24.80;98.40
3923;DHT22;1976;51.694;6.256;2022-08-04T02:03:28;24.90;98.10
3923;DHT22;1976;51.694;6.256;2022-08-04T02:09:34;24.90;97.80
3923;DHT22;1976;51.694;6.256;2022-08-04T02:11:33;24.90;98.00
3923;DHT22;1976;51.694;6.256;2022-08-04T02:16:46;25.00;97.60
3923;DHT22;1976;51.694;6.256;2022-08-04T02:19:43;25.00;97.80
3923;DHT22;1976;51.694;6.256;2022-08-04T02:22:16;25.00;97.90
3923;DHT22;1976;51.694;6.256;2022-08-04T02:24:45;25.00;97.90
3923;DHT22;1976;51.694;6.256;2022-08-04T02:27:15;25.00;97.80
3923;DHT22;1976;51.694;6.256;2022-08-04T02:29:55;25.00;97.80
3923;DHT22;1976;51.694;6.256;2022-08-04T02:32:28;25.00;97.60
3923;DHT22;1976;51.694;6.256;2022-08-04T02:37:31;25.00;97.80
3923;DHT22;1976;51.694;6.256;2022-08-04T02:40:00;25.00;97.50
3923;DHT22;1976;51.694;6.256;2022-08-04T02:42:28;25.00;97.80
3923;DHT22;1976;51.694;6.256;2022-08-04T02:44:57;24.90;97.50
3923;DHT22;1976;51.694;6.256;2022-08-04T02:47:25;25.00;97.80
3923;DHT22;1976;51.694;6.256;2022-08-04T02:49:51;25.00;97.70
3923;DHT22;1976;51.694;6.256;2022-08-04T02:52:18;25.00;97.60
3923;DHT22;1976;51.694;6.256;2022-08-04T02:54:46;25.00;97.30
3923;DHT22;1976;51.694;6.256;2022-08-04T02:57:14;25.00;97.60
3923;DHT22;1976;51.694;6.256;2022-08-04T03:02:21;25.10;97.50
3923;DHT22;1976;51.694;6.256;2022-08-04T03:05:24;25.10;97.10
3923;DHT22;1976;51.694;6.256;2022-08-04T03:31:10;25.00;97.50
3923;DHT22;1976;51.694;6.256;2022-08-04T03:42:13;24.90;97.30
3923;DHT22;1976;51.694;6.256;2022-08-04T03:47:55;24.90;97.50
3923;DHT22;1976;51.694;6.256;2022-08-04T03:50:45;24.80;97.50
3923;DHT22;1976;51.694;6.256;2022-08-04T03:53:48;24.80;97.60
3923;DHT22;1976;51.694;6.256;2022-08-04T03:56:35;24.80;97.80
3923;DHT22;1976;51.694;6.256;2022-08-04T03:59:23;24.70;97.90
3923;DHT22;1976;51.694;6.256;2022-08-04T04:04:50;24.60;98.10
3923;DHT22;1976;51.694;6.256;2022-08-04T04:13:28;24.60;98.30
3923;DHT22;1976;51.694;6.256;2022-08-04T04:18:48;24.60;98.70
3923;DHT22;1976;51.694;6.256;2022-08-04T04:36:11;24.40;99.00
3923;DHT22;1976;51.694;6.256;2022-08-04T04:38:46;24.40;99.00
3923;DHT22;1976;51.694;6.256;2022-08-04T04:44:41;24.60;99.00
3923;DHT22;1976;51.694;6.256;2022-08-04T04:47:26;24.50;99.20
3923;DHT22;1976;51.694;6.256;2022-08-04T04:50:38;24.60;99.30
3923;DHT22;1976;51.694;6.256;2022-08-04T04:55:42;24.70;99.30
3923;DHT22;1976;51.694;6.256;2022-08-04T04:58:12;24.70;99.20
3923;DHT22;1976;51.694;6.256;2022-08-04T05:06:13;24.80;99.00
3923;DHT22;1976;51.694;6.256;2022-08-04T05:16:57;24.90;98.90
3923;DHT22;1976;51.694;6.256;2022-08-04T05:25:17;25.10;99.10
3923;DHT22;1976;51.694;6.256;2022-08-04T05:28:14;25.10;99.20
3923;DHT22;1976;51.694;6.256;2022-08-04T05:30:46;25.10;98.90
3923;DHT22;1976;51.694;6.256;2022-08-04T05:33:16;25.10;99.20
3923;DHT22;1976;51.694;6.256;2022-08-04T05:35:45;25.10;99.20
3923;DHT22;1976;51.694;6.256;2022-08-04T05:38:16;25.20;99.30
3923;DHT22;1976;51.694;6.256;2022-08-04T05:40:42;25.30;99.20
3923;DHT22;1976;51.694;6.256;2022-08-04T05:43:08;25.30;99.20
3923;DHT22;1976;51.694;6.256;2022-08-04T05:45:35;25.40;99.30
3923;DHT22;1976;51.694;6.256;2022-08-04T05:48:02;25.40;99.50
3923;DHT22;1976;51.694;6.256;2022-08-04T05:50:29;25.50;98.90
3923;DHT22;1976;51.694;6.256;2022-08-04T05:52:58;25.70;98.70
3923;DHT22;1976;51.694;6.256;2022-08-04T05:55:25;25.70;99.00
3923;DHT22;1976;51.694;6.256;2022-08-04T05:57:51;25.80;98.40
3923;DHT22;1976;51.694;6.256;2022-08-04T06:00:18;25.80;97.90
3923;DHT22;1976;51.694;6.256;2022-08-04T06:02:46;25.80;97.90
3923;DHT22;1976;51.694;6.256;2022-08-04T06:05:14;25.90;97.60
3923;DHT22;1976;51.694;6.256;2022-08-04T06:07:42;25.90;97.30
3923;DHT22;1976;51.694;6.256;2022-08-04T06:10:08;25.90;97.60
3923;DHT22;1976;51.694;6.256;2022-08-04T06:12:53;25.90;97.30
3923;DHT22;1976;51.694;6.256;2022-08-04T06:15:20;26.00;97.40
3923;DHT22;1976;51.694;6.256;2022-08-04T06:17:53;26.00;97.70
3923;DHT22;1976;51.694;6.256;2022-08-04T06:20:26;26.10;97.80
3923;DHT22;1976;51.694;6.256;2022-08-04T06:22:54;26.20;97.90
3923;DHT22;1976;51.694;6.256;2022-08-04T06:25:24;26.20;99.00
3923;DHT22;1976;51.694;6.256;2022-08-04T06:27:51;26.30;99.00
3923;DHT22;1976;51.694;6.256;2022-08-04T06:30:17;26.30;99.40
3923;DHT22;1976;51.694;6.256;2022-08-04T06:32:46;26.30;99.10
3923;DHT22;1976;51.694;6.256;2022-08-04T06:35:15;26.40;99.10
3923;DHT22;1976;51.694;6.256;2022-08-04T06:37:44;26.40;98.10
3923;DHT22;1976;51.694;6.256;2022-08-04T06:40:14;26.40;98.20
3923;DHT22;1976;51.694;6.256;2022-08-04T06:42:40;26.40;98.90
3923;DHT22;1976;51.694;6.256;2022-08-04T06:45:08;26.40;98.70
3923;DHT22;1976;51.694;6.256;2022-08-04T06:47:36;26.50;98.80
3923;DHT22;1976;51.694;6.256;2022-08-04T06:50:04;26.50;99.20
3923;DHT22;1976;51.694;6.256;2022-08-04T06:52:30;26.60;99.10
3923;DHT22;1976;51.694;6.256;2022-08-04T06:54:56;26.60;99.80
3923;DHT22;1976;51.694;6.256;2022-08-04T06:57:25;26.60;99.50
3923;DHT22;1976;51.694;6.256;2022-08-04T07:00:11;26.60;99.80
3923;DHT22;1976;51.694;6.256;2022-08-04T07:02:49;26.60;99.40
3923;DHT22;1976;51.694;6.256;2022-08-04T07:05:16;26.70;99.00
3923;DHT22;1976;51.694;6.256;2022-08-04T07:07:43;26.80;98.50
3923;DHT22;1976;51.694;6.256;2022-08-04T07:10:10;26.80;98.50
3923;DHT22;1976;51.694;6.256;2022-08-04T07:12:37;26.70;98.00
3923;DHT22;1976;51.694;6.256;2022-08-04T07:15:04;26.70;98.60
3923;DHT22;1976;51.694;6.256;2022-08-04T07:17:31;26.60;99.20
3923;DHT22;1976;51.694;6.256;2022-08-04T07:19:58;26.60;98.60
3923;DHT22;1976;51.694;6.256;2022-08-04T07:22:25;26.60;99.00
3923;DHT22;1976;51.694;6.256;2022-08-04T07:24:56;26.70;99.40
3923;DHT22;1976;51.694;6.256;2022-08-04T07:27:23;26.70;97.80
3923;DHT22;1976;51.694;6.256;2022-08-04T07:29:50;26.70;98.80
3923;DHT22;1976;51.694;6.256;2022-08-04T07:32:18;26.80;98.60
3923;DHT22;1976;51.694;6.256;2022-08-04T07:34:49;26.90;98.10
3923;DHT22;1976;51.694;6.256;2022-08-04T07:37:16;27.00;97.80
3923;DHT22;1976;51.694;6.256;2022-08-04T07:39:42;27.00;97.70
3923;DHT22;1976;51.694;6.256;2022-08-04T07:42:08;27.10;97.70
3923;DHT22;1976;51.694;6.256;2022-08-04T07:44:34;27.30;97.80
3923;DHT22;1976;51.694;6.256;2022-08-04T07:47:02;27.30;97.50
3923;DHT22;1976;51.694;6.256;2022-08-04T07:49:30;27.40;97.20
3923;DHT22;1976;51.694;6.256;2022-08-04T07:51:56;27.50;97.20
3923;DHT22;1976;51.694;6.256;2022-08-04T07:54:22;27.50;97.40
3923;DHT22;1976;51.694;6.256;2022-08-04T07:56:49;27.70;96.90
3923;DHT22;1976;51.694;6.256;2022-08-04T07:59:19;27.70;98.00
3923;DHT22;1976;51.694;6.256;2022-08-04T08:01:45;27.90;96.90
3923;DHT22;1976;51.694;6.256;2022-08-04T08:04:11;27.70;95.80
3923;DHT22;1976;51.694;6.256;2022-08-04T08:06:39;27.80;96.50
3923;DHT22;1976;51.694;6.256;2022-08-04T08:09:13;27.70;95.80
3923;DHT22;1976;51.694;6.256;2022-08-04T08:11:48;27.90;96.10
3923;DHT22;1976;51.694;6.256;2022-08-04T08:14:15;28.00;95.30
3923;DHT22;1976;51.694;6.256;2022-08-04T08:16:41;28.20;95.80
3923;DHT22;1976;51.694;6.256;2022-08-04T08:19:07;28.40;95.60
3923;DHT22;1976;51.694;6.256;2022-08-04T08:21:33;28.60;95.60
3923;DHT22;1976;51.694;6.256;2022-08-04T08:23:59;28.70;95.30
3923;DHT22;1976;51.694;6.256;2022-08-04T08:26:26;28.80;95.10
3923;DHT22;1976;51.694;6.256;2022-08-04T08:28:52;29.00;95.00
3923;DHT22;1976;51.694;6.256;2022-08-04T08:31:17;29.10;94.80
3923;DHT22;1976;51.694;6.256;2022-08-04T08:33:43;29.20;93.80
3923;DHT22;1976;51.694;6.256;2022-08-04T08:39:21;29.80;93.90
3923;DHT22;1976;51.694;6.256;2022-08-04T08:53:19;32.30;90.40
3923;DHT22;1976;51.694;6.256;2022-08-04T09:04:26;34.50;82.10
3923;DHT22;1976;51.694;6.256;2022-08-04T09:07:18;34.20;82.00
3923;DHT22;1976;51.694;6.256;2022-08-04T09:15:07;33.30;83.30
3923;DHT22;1976;51.694;6.256;2022-08-04T09:23:39;33.70;81.60
3923;DHT22;1976;51.694;6.256;2022-08-04T09:29:04;33.80;82.80
3923;DHT22;1976;51.694;6.256;2022-08-04T09:34:46;34.20;81.00
3923;DHT22;1976;51.694;6.256;2022-08-04T09:37:41;34.30;82.00
3923;DHT22;1976;51.694;6.256;2022-08-04T09:40:47;34.20;81.50
3923;DHT22;1976;51.694;6.256;2022-08-04T09:43:11;34.80;81.60
3923;DHT22;1976;51.694;6.256;2022-08-04T09:45:49;36.30;79.00
3923;DHT22;1976;51.694;6.256;2022-08-04T09:54:50;38.70;72.80
3923;DHT22;1976;51.694;6.256;2022-08-04T09:57:17;39.20;70.00
3923;DHT22;1976;51.694;6.256;2022-08-04T10:00:09;39.10;69.40
3923;DHT22;1976;51.694;6.256;2022-08-04T10:02:37;39.00;71.00
3923;DHT22;1976;51.694;6.256;2022-08-04T10:05:07;39.40;70.50
3923;DHT22;1976;51.694;6.256;2022-08-04T10:11:08;39.40;65.20
3923;DHT22;1976;51.694;6.256;2022-08-04T10:16:45;39.60;62.90
3923;DHT22;1976;51.694;6.256;2022-08-04T10:19:26;39.60;62.60
3923;DHT22;1976;51.694;6.256;2022-08-04T10:25:02;38.90;63.80
3923;DHT22;1976;51.694;6.256;2022-08-04T10:27:35;38.40;64.80
3923;DHT22;1976;51.694;6.256;2022-08-04T10:30:05;38.00;65.90
3923;DHT22;1976;51.694;6.256;2022-08-04T10:35:16;37.10;65.50
3923;DHT22;1976;51.694;6.256;2022-08-04T10:40:42;36.00;69.50
3923;DHT22;1976;51.694;6.256;2022-08-04T10:46:16;37.10;68.30
3923;DHT22;1976;51.694;6.256;2022-08-04T10:51:35;36.10;67.30
3923;DHT22;1976;51.694;6.256;2022-08-04T10:54:11;34.50;71.00
3923;DHT22;1976;51.694;6.256;2022-08-04T10:56:41;33.80;71.30
3923;DHT22;1976;51.694;6.256;2022-08-04T10:59:17;33.70;72.80
3923;DHT22;1976;51.694;6.256;2022-08-04T11:01:47;33.10;73.30
3923;DHT22;1976;51.694;6.256;2022-08-04T11:04:22;32.30;81.80
3923;DHT22;1976;51.694;6.256;2022-08-04T11:06:51;32.20;85.70
3923;DHT22;1976;51.694;6.256;2022-08-04T11:09:17;31.00;91.60
3923;DHT22;1976;51.694;6.256;2022-08-04T11:11:48;30.50;91.00
3923;DHT22;1976;51.694;6.256;2022-08-04T11:14:18;30.40;90.80
3923;DHT22;1976;51.694;6.256;2022-08-04T11:17:00;30.30;91.20
3923;DHT22;1976;51.694;6.256;2022-08-04T11:19:31;30.00;92.20
3923;DHT22;1976;51.694;6.256;2022-08-04T11:22:03;29.70;91.70
3923;DHT22;1976;51.694;6.256;2022-08-04T11:24:49;29.70;92.00
3923;DHT22;1976;51.694;6.256;2022-08-04T11:27:27;29.40;92.70
3923;DHT22;1976;51.694;6.256;2022-08-04T11:30:02;29.20;94.10
3923;DHT22;1976;51.694;6.256;2022-08-04T11:32:41;29.10;94.90
3923;DHT22;1976;51.694;6.256;2022-08-04T11:35:13;29.10;95.60
3923;DHT22;1976;51.694;6.256;2022-08-04T11:37:45;29.80;95.10
3923;DHT22;1976;51.694;6.256;2022-08-04T11:40:23;30.50;94.50
3923;DHT22;1976;51.694;6.256;2022-08-04T11:42:56;33.00;91.80
3923;DHT22;1976;51.694;6.256;2022-08-04T11:45:35;34.70;87.90
3923;DHT22;1976;51.694;6.256;2022-08-04T11:48:10;35.40;85.20
3923;DHT22;1976;51.694;6.256;2022-08-04T11:50:38;37.90;80.30
3923;DHT22;1976;51.694;6.256;2022-08-04T11:53:10;39.30;74.10
3923;DHT22;1976;51.694;6.256;2022-08-04T11:55:43;39.90;70.40
3923;DHT22;1976;51.694;6.256;2022-08-04T11:58:10;40.20;69.20
3923;DHT22;1976;51.694;6.256;2022-08-04T12:00:41;39.90;67.20
3923;DHT22;1976;51.694;6.256;2022-08-04T12:03:31;39.30;67.00
3923;DHT22;1976;51.694;6.256;2022-08-04T12:06:27;38.30;67.90
3923;DHT22;1976;51.694;6.256;2022-08-04T12:12:17;36.50;71.40
3923;DHT22;1976;51.694;6.256;2022-08-04T12:17:53;34.60;74.80
3923;DHT22;1976;51.694;6.256;2022-08-04T12:20:24;34.10;76.60
3923;DHT22;1976;51.694;6.256;2022-08-04T12:22:53;33.90;77.50
3923;DHT22;1976;51.694;6.256;2022-08-04T12:25:40;33.90;78.20
3923;DHT22;1976;51.694;6.256;2022-08-04T12:28:15;33.90;78.30
3923;DHT22;1976;51.694;6.256;2022-08-04T12:30:48;34.00;79.10
3923;DHT22;1976;51.694;6.256;2022-08-04T12:33:44;34.10;79.40
3923;DHT22;1976;51.694;6.256;2022-08-04T12:38:51;34.40;80.40
3923;DHT22;1976;51.694;6.256;2022-08-04T12:41:27;34.40;80.50
3923;DHT22;1976;51.694;6.256;2022-08-04T12:43:54;34.40;79.90
3923;DHT22;1976;51.694;6.256;2022-08-04T12:46:24;34.40;79.50
3923;DHT22;1976;51.694;6.256;2022-08-04T12:48:51;34.60;79.40
3923;DHT22;1976;51.694;6.256;2022-08-04T12:51:26;34.80;78.50
3923;DHT22;1976;51.694;6.256;2022-08-04T12:53:54;34.90;78.70
3923;DHT22;1976;51.694;6.256;2022-08-04T12:56:26;35.10;78.50
3923;DHT22;1976;51.694;6.256;2022-08-04T12:58:54;35.20;78.40
3923;DHT22;1976;51.694;6.256;2022-08-04T13:01:25;35.40;77.40
3923;DHT22;1976;51.694;6.256;2022-08-04T13:04:03;35.50;77.00
3923;DHT22;1976;51.694;6.256;2022-08-04T13:06:35;35.60;77.50
3923;DHT22;1976;51.694;6.256;2022-08-04T13:09:04;35.60;77.50
3923;DHT22;1976;51.694;6.256;2022-08-04T13:11:36;35.60;77.50
3923;DHT22;1976;51.694;6.256;2022-08-04T13:14:03;35.60;77.40
3923;DHT22;1976;51.694;6.256;2022-08-04T13:16:31;35.80;77.10
3923;DHT22;1976;51.694;6.256;2022-08-04T13:18:57;36.10;75.50
3923;DHT22;1976;51.694;6.256;2022-08-04T13:21:24;36.70;75.80
3923;DHT22;1976;51.694;6.256;2022-08-04T13:23:55;38.00;73.60
3923;DHT22;1976;51.694;6.256;2022-08-04T13:26:23;39.10;70.50
3923;DHT22;1976;51.694;6.256;2022-08-04T13:28:52;39.50;69.80
3923;DHT22;1976;51.694;6.256;2022-08-04T13:31:21;39.40;68.50
3923;DHT22;1976;51.694;6.256;2022-08-04T13:33:49;39.30;68.40
3923;DHT22;1976;51.694;6.256;2022-08-04T13:36:17;40.10;67.80
3923;DHT22;1976;51.694;6.256;2022-08-04T13:38:52;40.90;66.10
3923;DHT22;1976;51.694;6.256;2022-08-04T13:41:19;41.70;64.90
3923;DHT22;1976;51.694;6.256;2022-08-04T13:43:48;42.00;62.80
3923;DHT22;1976;51.694;6.256;2022-08-04T13:46:31;41.40;63.10
3923;DHT22;1976;51.694;6.256;2022-08-04T13:49:00;40.30;63.90
3923;DHT22;1976;51.694;6.256;2022-08-04T13:51:28;39.20;65.40
3923;DHT22;1976;51.694;6.256;2022-08-04T13:53:59;38.20;67.40
3923;DHT22;1976;51.694;6.256;2022-08-04T13:56:32;37.20;68.60
3923;DHT22;1976;51.694;6.256;2022-08-04T13:59:00;36.40;70.50
3923;DHT22;1976;51.694;6.256;2022-08-04T14:01:27;35.90;72.80
3923;DHT22;1976;51.694;6.256;2022-08-04T14:06:19;34.70;75.70
3923;DHT22;1976;51.694;6.256;2022-08-04T14:08:51;34.30;78.40
3923;DHT22;1976;51.694;6.256;2022-08-04T14:11:20;33.80;75.50
3923;DHT22;1976;51.694;6.256;2022-08-04T14:13:46;33.50;77.20
3923;DHT22;1976;51.694;6.256;2022-08-04T14:16:20;33.20;78.80
3923;DHT22;1976;51.694;6.256;2022-08-04T14:18:46;33.20;79.30
3923;DHT22;1976;51.694;6.256;2022-08-04T14:21:14;33.20;78.30
3923;DHT22;1976;51.694;6.256;2022-08-04T14:23:44;33.30;79.10
3923;DHT22;1976;51.694;6.256;2022-08-04T14:26:15;33.10;79.30
3923;DHT22;1976;51.694;6.256;2022-08-04T14:28:41;32.90;80.90
3923;DHT22;1976;51.694;6.256;2022-08-04T14:31:15;32.80;80.90
3923;DHT22;1976;51.694;6.256;2022-08-04T14:33:42;32.80;80.00
3923;DHT22;1976;51.694;6.256;2022-08-04T14:36:09;32.70;80.40
3923;DHT22;1976;51.694;6.256;2022-08-04T14:38:53;32.80;82.10
3923;DHT22;1976;51.694;6.256;2022-08-04T14:41:22;32.80;82.20
3923;DHT22;1976;51.694;6.256;2022-08-04T14:43:52;33.00;82.60
3923;DHT22;1976;51.694;6.256;2022-08-04T14:46:19;33.00;82.60
3923;DHT22;1976;51.694;6.256;2022-08-04T14:51:26;33.00;82.20
3923;DHT22;1976;51.694;6.256;2022-08-04T14:53:52;33.30;82.30
3923;DHT22;1976;51.694;6.256;2022-08-04T14:56:19;33.70;82.90
3923;DHT22;1976;51.694;6.256;2022-08-04T14:58:44;34.30;82.30
3923;DHT22;1976;51.694;6.256;2022-08-04T15:01:11;34.80;81.30
3923;DHT22;1976;51.694;6.256;2022-08-04T15:03:42;34.90;79.50
3923;DHT22;1976;51.694;6.256;2022-08-04T15:06:08;34.80;78.80
3923;DHT22;1976;51.694;6.256;2022-08-04T15:08:34;34.50;78.00
3923;DHT22;1976;51.694;6.256;2022-08-04T15:11:01;34.30;77.70
3923;DHT22;1976;51.694;6.256;2022-08-04T15:13:28;34.10;78.10
3923;DHT22;1976;51.694;6.256;2022-08-04T15:15:54;34.10;78.70
3923;DHT22;1976;51.694;6.256;2022-08-04T15:18:20;34.00;79.10
3923;DHT22;1976;51.694;6.256;2022-08-04T15:20:46;33.90;79.00
3923;DHT22;1976;51.694;6.256;2022-08-04T15:23:12;33.80;79.70
3923;DHT22;1976;51.694;6.256;2022-08-04T15:25:41;33.50;80.10
3923;DHT22;1976;51.694;6.256;2022-08-04T15:28:12;33.50;81.60
3923;DHT22;1976;51.694;6.256;2022-08-04T15:30:39;33.60;81.40
3923;DHT22;1976;51.694;6.256;2022-08-04T15:33:06;33.50;80.20
3923;DHT22;1976;51.694;6.256;2022-08-04T15:35:33;33.30;79.90
3923;DHT22;1976;51.694;6.256;2022-08-04T15:38:07;33.10;79.80
3923;DHT22;1976;51.694;6.256;2022-08-04T15:40:55;33.00;80.00
3923;DHT22;1976;51.694;6.256;2022-08-04T15:49:22;32.90;80.90
3923;DHT22;1976;51.694;6.256;2022-08-04T15:52:11;33.00;80.10
3923;DHT22;1976;51.694;6.256;2022-08-04T15:54:38;33.10;80.00
3923;DHT22;1976;51.694;6.256;2022-08-04T15:57:05;33.10;79.50
3923;DHT22;1976;51.694;6.256;2022-08-04T16:00:05;33.10;79.40
3923;DHT22;1976;51.694;6.256;2022-08-04T16:08:10;33.60;79.70
3923;DHT22;1976;51.694;6.256;2022-08-04T16:10:39;33.40;80.10
3923;DHT22;1976;51.694;6.256;2022-08-04T16:13:10;33.20;81.60
3923;DHT22;1976;51.694;6.256;2022-08-04T16:21:01;33.60;80.00
3923;DHT22;1976;51.694;6.256;2022-08-04T16:23:46;33.60;79.50
3923;DHT22;1976;51.694;6.256;2022-08-04T16:29:29;33.30;79.30
3923;DHT22;1976;51.694;6.256;2022-08-04T16:34:34;32.70;81.80
3923;DHT22;1976;51.694;6.256;2022-08-04T16:37:02;32.50;82.80
3923;DHT22;1976;51.694;6.256;2022-08-04T16:39:29;32.60;82.80
3923;DHT22;1976;51.694;6.256;2022-08-04T16:41:56;32.70;82.00
3923;DHT22;1976;51.694;6.256;2022-08-04T16:44:42;32.90;81.90
3923;DHT22;1976;51.694;6.256;2022-08-04T16:47:07;33.10;81.90
3923;DHT22;1976;51.694;6.256;2022-08-04T16:49:34;33.30;80.80
3923;DHT22;1976;51.694;6.256;2022-08-04T16:52:06;33.40;80.40
3923;DHT22;1976;51.694;6.256;2022-08-04T16:54:35;33.50;80.60
3923;DHT22;1976;51.694;6.256;2022-08-04T16:57:08;33.70;80.80
3923;DHT22;1976;51.694;6.256;2022-08-04T16:59:34;33.70;79.90
3923;DHT22;1976;51.694;6.256;2022-08-04T17:02:00;33.70;79.30
3923;DHT22;1976;51.694;6.256;2022-08-04T17:04:31;33.70;79.20
3923;DHT22;1976;51.694;6.256;2022-08-04T17:06:59;33.70;80.00
3923;DHT22;1976;51.694;6.256;2022-08-04T17:09:25;33.70;78.80
3923;DHT22;1976;51.694;6.256;2022-08-04T17:11:51;33.70;78.00
3923;DHT22;1976;51.694;6.256;2022-08-04T17:14:25;33.60;77.30
3923;DHT22;1976;51.694;6.256;2022-08-04T17:16:53;33.60;77.20
3923;DHT22;1976;51.694;6.256;2022-08-04T17:19:19;33.60;76.40
3923;DHT22;1976;51.694;6.256;2022-08-04T17:21:44;33.60;75.90
3923;DHT22;1976;51.694;6.256;2022-08-04T17:24:11;33.60;75.60
3923;DHT22;1976;51.694;6.256;2022-08-04T17:26:38;33.40;75.30
3923;DHT22;1976;51.694;6.256;2022-08-04T17:29:04;33.30;75.70
3923;DHT22;1976;51.694;6.256;2022-08-04T17:31:32;33.10;75.70
3923;DHT22;1976;51.694;6.256;2022-08-04T17:34:01;33.00;75.80
3923;DHT22;1976;51.694;6.256;2022-08-04T17:36:32;32.70;75.90
3923;DHT22;1976;51.694;6.256;2022-08-04T17:39:09;32.50;76.60
3923;DHT22;1976;51.694;6.256;2022-08-04T17:41:36;32.30;77.50
3923;DHT22;1976;51.694;6.256;2022-08-04T17:44:04;32.10;78.60
3923;DHT22;1976;51.694;6.256;2022-08-04T17:46:35;31.90;79.20
3923;DHT22;1976;51.694;6.256;2022-08-04T17:54:02;31.50;80.40
3923;DHT22;1976;51.694;6.256;2022-08-04T17:56:44;31.40;80.60
3923;DHT22;1976;51.694;6.256;2022-08-04T18:09:38;30.60;81.20
3923;DHT22;1976;51.694;6.256;2022-08-04T18:12:10;30.30;81.40
3923;DHT22;1976;51.694;6.256;2022-08-04T18:14:42;30.20;81.50
3923;DHT22;1976;51.694;6.256;2022-08-04T18:17:09;30.00;82.00
3923;DHT22;1976;51.694;6.256;2022-08-04T18:19:36;29.80;82.60
3923;DHT22;1976;51.694;6.256;2022-08-04T18:22:03;29.70;82.60
3923;DHT22;1976;51.694;6.256;2022-08-04T18:24:31;29.50;83.30
3923;DHT22;1976;51.694;6.256;2022-08-04T18:26:57;29.30;83.80
3923;DHT22;1976;51.694;6.256;2022-08-04T18:29:23;29.20;84.40
3923;DHT22;1976;51.694;6.256;2022-08-04T18:31:49;29.10;85.50
3923;DHT22;1976;51.694;6.256;2022-08-04T18:34:15;28.90;85.70
3923;DHT22;1976;51.694;6.256;2022-08-04T18:36:40;28.80;85.70
3923;DHT22;1976;51.694;6.256;2022-08-04T18:39:09;28.70;85.60
3923;DHT22;1976;51.694;6.256;2022-08-04T18:41:35;28.60;86.60
3923;DHT22;1976;51.694;6.256;2022-08-04T18:44:01;28.40;88.80
3923;DHT22;1976;51.694;6.256;2022-08-04T18:46:27;28.30;89.30
3923;DHT22;1976;51.694;6.256;2022-08-04T18:48:52;28.20;88.70
3923;DHT22;1976;51.694;6.256;2022-08-04T18:51:18;28.10;87.70
3923;DHT22;1976;51.694;6.256;2022-08-04T18:53:45;28.00;87.10
3923;DHT22;1976;51.694;6.256;2022-08-04T18:56:11;27.80;87.20
3923;DHT22;1976;51.694;6.256;2022-08-04T18:58:37;27.60;85.70
3923;DHT22;1976;51.694;6.256;2022-08-04T19:01:03;27.50;86.20
3923;DHT22;1976;51.694;6.256;2022-08-04T19:03:29;27.30;85.90
3923;DHT22;1976;51.694;6.256;2022-08-04T19:05:54;27.20;85.90
3923;DHT22;1976;51.694;6.256;2022-08-04T19:08:20;27.00;86.20
3923;DHT22;1976;51.694;6.256;2022-08-04T19:10:46;26.90;86.70
3923;DHT22;1976;51.694;6.256;2022-08-04T19:13:11;26.80;87.10
3923;DHT22;1976;51.694;6.256;2022-08-04T19:15:37;26.70;88.10
3923;DHT22;1976;51.694;6.256;2022-08-04T19:18:03;26.60;87.00
3923;DHT22;1976;51.694;6.256;2022-08-04T19:20:28;26.50;87.50
3923;DHT22;1976;51.694;6.256;2022-08-04T19:22:54;26.40;87.90
3923;DHT22;1976;51.694;6.256;2022-08-04T19:25:20;26.30;87.80
3923;DHT22;1976;51.694;6.256;2022-08-04T19:27:46;26.20;88.10
3923;DHT22;1976;51.694;6.256;2022-08-04T19:30:12;26.20;88.30
3923;DHT22;1976;51.694;6.256;2022-08-04T19:32:37;26.10;88.50
3923;DHT22;1976;51.694;6.256;2022-08-04T19:35:04;26.00;88.90
3923;DHT22;1976;51.694;6.256;2022-08-04T19:37:29;26.00;89.00
3923;DHT22;1976;51.694;6.256;2022-08-04T19:39:56;25.90;89.40
3923;DHT22;1976;51.694;6.256;2022-08-04T19:42:22;25.80;90.10
3923;DHT22;1976;51.694;6.256;2022-08-04T19:44:48;25.70;90.30
3923;DHT22;1976;51.694;6.256;2022-08-04T19:47:13;25.70;90.30
3923;DHT22;1976;51.694;6.256;2022-08-04T19:49:39;25.70;90.50
3923;DHT22;1976;51.694;6.256;2022-08-04T19:52:05;25.50;90.50
3923;DHT22;1976;51.694;6.256;2022-08-04T19:54:32;25.50;90.90
3923;DHT22;1976;51.694;6.256;2022-08-04T19:56:58;25.50;91.30
3923;DHT22;1976;51.694;6.256;2022-08-04T19:59:23;25.40;91.30
3923;DHT22;1976;51.694;6.256;2022-08-04T20:01:50;25.40;91.20
3923;DHT22;1976;51.694;6.256;2022-08-04T20:04:16;25.40;91.40
3923;DHT22;1976;51.694;6.256;2022-08-04T20:06:42;25.40;91.50
3923;DHT22;1976;51.694;6.256;2022-08-04T20:09:08;25.30;91.70
3923;DHT22;1976;51.694;6.256;2022-08-04T20:11:34;25.30;91.90
3923;DHT22;1976;51.694;6.256;2022-08-04T20:13:59;25.30;92.00
3923;DHT22;1976;51.694;6.256;2022-08-04T20:16:25;25.20;91.70
3923;DHT22;1976;51.694;6.256;2022-08-04T20:18:51;25.20;91.90
3923;DHT22;1976;51.694;6.256;2022-08-04T20:21:16;25.20;92.00
3923;DHT22;1976;51.694;6.256;2022-08-04T20:23:42;25.10;92.00
3923;DHT22;1976;51.694;6.256;2022-08-04T20:26:08;25.10;92.30
3923;DHT22;1976;51.694;6.256;2022-08-04T20:28:34;25.10;92.40
3923;DHT22;1976;51.694;6.256;2022-08-04T20:31:01;25.00;92.50
3923;DHT22;1976;51.694;6.256;2022-08-04T20:33:27;25.00;92.70